Naps Table

Saturday December 16th

Saturday December 16th Naps Table
Selection Race Tipster W L £1 Stake Sky Bet
Castafiore (USA) 12:00 Don Morning Star Farringdon 0 1 +16.341016 13/27.50
Helmsley Lad 12:00 Don Racing Post The North 1 0 -5.25495 12/113.00
Countister (FR) 12:30 Don Racing Post Lambourn 0 1 -1.41499 8/131.62
Countister (FR) 12:30 Don The Star Patrick Weaver 0 4 -3.28497 8/131.62
Moulin A Vent 12:35 Fai The Irish Sun 0 2 +2.691002 7/42.75
Movewiththetimes (IRE) 12:45 Chel Racing Post West Country 1 0 +9.211009 4/51.80
Markov (IRE) 13:05 Don Sunday Express Jason Heavey 0 1 +6.581006 7/42.75
Markov (IRE) 13:05 Don Yorkshire Post The Duke 0 4 -8.53492 7/42.75
Theo (IRE) 13:20 Chel attheraces.com Lawrence Taylor 0 7 +34.961034 13/27.50
Star Story 13:50 Newc Western Morning News West Tip 0 6 +14.011014 11/102.10
Romain De Senam (FR) 13:55 Chel Gloucestershire Echo Melissa Jones 0 11 -17.74483 14/115.00
Clan Des Obeaux (FR) 13:55 Chel Daily Express The Scout 0 6 -28.74472 3/14.00
Clan Des Obeaux (FR) 13:55 Chel Daily Record Garry Owen 0 5 -31.26469 3/14.00
Clan Des Obeaux (FR) 13:55 Chel Racing UK The Score 0 2 +49.091049 3/14.00
Splash of Ginge 13:55 Chel Scottish Sun Jim Delahunt 0 10 +26.071026 10/111.00
Clan Des Obeaux (FR) 13:55 Chel Racing Post Spotlight 1 0 +20.931020 3/14.00
Starchitect (IRE) 13:55 Chel Sky Sports News Alex Hammond 0 2 +4.21004 6/17.00
Ballyalton (IRE) 13:55 Chel The Irish Field Rory Delargy 1 0 +3.171003 8/19.00
Splash of Ginge 13:55 Chel Irish Post Karl Hedley 0 14 +1.331001 10/111.00
Ballyalton (IRE) 13:55 Chel Daily Mirror Newsboy 0 6 -0.92500 8/19.00
Clan Des Obeaux (FR) 13:55 Chel Yorkshire Evening Post Lee Sobot 0 1 -5.11495 3/14.00
Ballyalton (IRE) 13:55 Chel Oxford Mail Mark Edwards 0 2 -7.68493 8/19.00
King's Odyssey (IRE) 13:55 Chel Liverpool Echo Chris Wright 0 5 -11.88489 7/18.00
Starchitect (IRE) 13:55 Chel Glasgow Herald PicksfromthePaddock 0 3 -11.99489 6/17.00
Clan Des Obeaux (FR) 13:55 Chel Scottish Express Chris Goulding 0 2 -12.24488 3/14.00
Clan Des Obeaux (FR) 13:55 Chel Shropshire Star Andy Morris 0 4 -15.56485 3/14.00
Starchitect (IRE) 13:55 Chel Irish Herald Ian Gaughran 1 0 -15.97485 6/17.00
Count Meribel 14:30 Chel Sunday Telegraph Whistler 0 4 -28.69472 15/82.88
Count Meribel 14:30 Chel Belfast Newsletter Wise Owl 0 1 -14.81486 15/82.88
We Have A Dream (FR) 14:45 Don The Scotsman Glendale 1 0 -27.33473 Evs2.00
Act Of Valour 14:45 Don The Press, York Ebor 1 0 +11.921011 5/42.25
My Tent Or Yours (IRE) 15:05 Chel Racing and Football Outlook 0 1 -16.65484 9/25.50
Melon 15:05 Chel The Sun On Sunday Sirius 0 2 -9.49491 7/42.75
Colreevy (IRE) 15:30 Fai Daily Post Mercury 0 1 -12.24488 8/131.62
Colreevy (IRE) 15:30 Fai Daily Star Sunday Moorestyle 0 6 -13.75487 8/131.62
Trevithick 15:35 Newc Daily Telegraph Marlborough 0 1 +3.01003 5/23.50
Lady Karina 15:40 Chel Sunday Mail Rockavon 0 8 -20.02480 5/16.00
Rons Dream 15:40 Chel Chester Leader Charlie Croasdale 0 4 -20.98480 14/115.00
Lady Karina 15:40 Chel The Times Rob Wright 0 8 -32.71468 5/16.00
Oscar Rose (IRE) 15:40 Chel Sheffield Star Fortunatus 1 0 +19.071019 7/18.00
Graceful Legend 15:40 Chel The Guardian 5 0 +15.351015 14/115.00
Rons Dream 15:40 Chel Racing Post RP Ratings 2 0 +14.181014 14/115.00
Lady Karina 15:40 Chel sportinglife.com 0 7 +3.061003 5/16.00
Lady Karina 15:40 Chel Weekender Paul Kealy 0 1 +3.01003 5/16.00
Momella (IRE) 15:40 Chel The Sun Templegate 1 0 -0.62500 5/16.00
Lamanver Odyssey 15:40 Chel Star Andrew Bladen 0 2 -6.23494 7/18.00
Straffan (IRE) 17:45 Wolv Glasgow Evening Times Jeffrey Ross 0 1 +2.71002 9/110.00
Espresso Freddo (IRE) 20:15 Wolv Racing Post Postdata 0 3 -23.0477 18/119.00
Twin Appeal (IRE) 20:45 Wolv Daily Mail Robin Goodfellow 0 3 -1.47499 9/25.50

© Racing Post